sensor_id;sensor_type;location;lat;lon;timestamp;P1;durP1;ratioP1;P2;durP2;ratioP2
65092;SDS011;52025;50.288;2.794;2023-06-24T04:35:46;11.00;;;4.95;;
65092;SDS011;52025;50.288;2.794;2023-06-24T04:44:23;7.78;;;4.40;;
65092;SDS011;52025;50.288;2.794;2023-06-24T04:47:11;8.32;;;5.10;;
65092;SDS011;52025;50.288;2.794;2023-06-24T04:49:49;7.93;;;5.22;;
65092;SDS011;52025;50.288;2.794;2023-06-24T04:52:28;7.22;;;4.43;;
65092;SDS011;52025;50.288;2.794;2023-06-24T04:55:13;8.43;;;5.07;;
65092;SDS011;52025;50.288;2.794;2023-06-24T05:00:48;8.30;;;4.90;;
65092;SDS011;52025;50.288;2.794;2023-06-24T05:06:35;8.32;;;4.90;;
65092;SDS011;52025;50.288;2.794;2023-06-24T05:12:11;7.90;;;4.25;;
65092;SDS011;52025;50.288;2.794;2023-06-24T05:14:48;9.38;;;4.97;;
65092;SDS011;52025;50.288;2.794;2023-06-24T05:17:21;7.35;;;4.13;;
65092;SDS011;52025;50.288;2.794;2023-06-24T05:19:52;7.88;;;3.80;;
65092;SDS011;52025;50.288;2.794;2023-06-24T05:22:34;7.57;;;4.30;;
65092;SDS011;52025;50.288;2.794;2023-06-24T05:25:05;9.68;;;4.50;;
65092;SDS011;52025;50.288;2.794;2023-06-24T05:28:11;9.80;;;4.80;;
65092;SDS011;52025;50.288;2.794;2023-06-24T05:30:46;7.55;;;4.18;;
65092;SDS011;52025;50.288;2.794;2023-06-24T05:33:16;7.65;;;4.60;;
65092;SDS011;52025;50.288;2.794;2023-06-24T05:35:47;7.75;;;4.32;;
65092;SDS011;52025;50.288;2.794;2023-06-24T05:38:15;8.95;;;4.63;;
65092;SDS011;52025;50.288;2.794;2023-06-24T05:40:45;8.98;;;4.30;;
65092;SDS011;52025;50.288;2.794;2023-06-24T05:43:17;8.23;;;4.38;;
65092;SDS011;52025;50.288;2.794;2023-06-24T05:46:00;7.00;;;3.90;;
65092;SDS011;52025;50.288;2.794;2023-06-24T05:48:31;7.38;;;4.25;;
65092;SDS011;52025;50.288;2.794;2023-06-24T05:51:03;9.98;;;5.00;;
65092;SDS011;52025;50.288;2.794;2023-06-24T05:56:32;8.85;;;4.47;;
65092;SDS011;52025;50.288;2.794;2023-06-24T06:28:11;6.90;;;4.20;;
65092;SDS011;52025;50.288;2.794;2023-06-24T06:36:41;9.65;;;5.35;;
65092;SDS011;52025;50.288;2.794;2023-06-24T06:39:06;7.55;;;5.18;;
65092;SDS011;52025;50.288;2.794;2023-06-24T06:41:31;9.88;;;4.80;;
65092;SDS011;52025;50.288;2.794;2023-06-24T06:43:57;9.13;;;5.15;;
65092;SDS011;52025;50.288;2.794;2023-06-24T06:46:22;7.53;;;4.28;;
65092;SDS011;52025;50.288;2.794;2023-06-24T06:48:48;7.18;;;4.35;;
65092;SDS011;52025;50.288;2.794;2023-06-24T06:51:18;8.33;;;4.90;;
65092;SDS011;52025;50.288;2.794;2023-06-24T06:53:45;6.50;;;4.20;;
65092;SDS011;52025;50.288;2.794;2023-06-24T06:56:16;7.63;;;3.70;;
65092;SDS011;52025;50.288;2.794;2023-06-24T06:58:50;7.15;;;3.85;;
65092;SDS011;52025;50.288;2.794;2023-06-24T07:01:15;5.23;;;3.13;;
65092;SDS011;52025;50.288;2.794;2023-06-24T07:03:41;6.15;;;4.25;;
65092;SDS011;52025;50.288;2.794;2023-06-24T07:06:06;6.95;;;4.25;;
65092;SDS011;52025;50.288;2.794;2023-06-24T07:08:34;7.85;;;4.25;;
65092;SDS011;52025;50.288;2.794;2023-06-24T07:11:00;9.77;;;4.70;;
65092;SDS011;52025;50.288;2.794;2023-06-24T07:13:25;7.22;;;4.30;;
65092;SDS011;52025;50.288;2.794;2023-06-24T07:15:51;7.07;;;3.95;;
65092;SDS011;52025;50.288;2.794;2023-06-24T07:18:18;7.57;;;4.40;;
65092;SDS011;52025;50.288;2.794;2023-06-24T07:20:44;7.32;;;4.45;;
65092;SDS011;52025;50.288;2.794;2023-06-24T07:23:18;7.82;;;4.63;;
65092;SDS011;52025;50.288;2.794;2023-06-24T07:25:56;5.93;;;3.67;;
65092;SDS011;52025;50.288;2.794;2023-06-24T07:41:16;6.13;;;2.83;;
65092;SDS011;52025;50.288;2.794;2023-06-24T07:43:41;7.00;;;3.00;;
65092;SDS011;52025;50.288;2.794;2023-06-24T07:46:06;6.05;;;3.08;;
65092;SDS011;52025;50.288;2.794;2023-06-24T07:48:35;6.63;;;3.72;;
65092;SDS011;52025;50.288;2.794;2023-06-24T07:51:00;6.45;;;3.10;;
65092;SDS011;52025;50.288;2.794;2023-06-24T07:53:25;6.18;;;2.78;;
65092;SDS011;52025;50.288;2.794;2023-06-24T07:55:51;5.68;;;2.67;;
65092;SDS011;52025;50.288;2.794;2023-06-24T07:58:16;6.20;;;2.90;;
65092;SDS011;52025;50.288;2.794;2023-06-24T08:00:44;4.57;;;2.60;;
65092;SDS011;52025;50.288;2.794;2023-06-24T08:03:13;5.93;;;2.90;;
65092;SDS011;52025;50.288;2.794;2023-06-24T08:05:48;5.25;;;2.30;;
65092;SDS011;52025;50.288;2.794;2023-06-24T08:11:18;4.63;;;2.30;;
65092;SDS011;52025;50.288;2.794;2023-06-24T08:13:43;6.03;;;2.80;;
65092;SDS011;52025;50.288;2.794;2023-06-24T08:16:09;5.93;;;2.38;;
65092;SDS011;52025;50.288;2.794;2023-06-24T08:18:37;4.18;;;2.25;;
65092;SDS011;52025;50.288;2.794;2023-06-24T08:21:02;8.73;;;3.50;;
65092;SDS011;52025;50.288;2.794;2023-06-24T08:23:28;6.13;;;3.40;;
65092;SDS011;52025;50.288;2.794;2023-06-24T08:25:56;7.30;;;2.22;;
65092;SDS011;52025;50.288;2.794;2023-06-24T08:28:21;3.30;;;1.63;;
65092;SDS011;52025;50.288;2.794;2023-06-24T08:30:46;5.65;;;2.72;;
65092;SDS011;52025;50.288;2.794;2023-06-24T08:33:12;5.68;;;2.50;;
65092;SDS011;52025;50.288;2.794;2023-06-24T08:35:37;5.40;;;2.60;;
65092;SDS011;52025;50.288;2.794;2023-06-24T08:38:02;4.65;;;2.20;;
65092;SDS011;52025;50.288;2.794;2023-06-24T08:40:28;4.10;;;2.22;;
65092;SDS011;52025;50.288;2.794;2023-06-24T08:42:53;6.75;;;3.55;;
65092;SDS011;52025;50.288;2.794;2023-06-24T08:45:19;5.28;;;2.50;;
65092;SDS011;52025;50.288;2.794;2023-06-24T08:47:45;6.50;;;2.85;;
65092;SDS011;52025;50.288;2.794;2023-06-24T08:50:11;4.72;;;2.20;;
65092;SDS011;52025;50.288;2.794;2023-06-24T08:52:38;5.75;;;2.30;;
65092;SDS011;52025;50.288;2.794;2023-06-24T08:55:06;4.85;;;2.63;;
65092;SDS011;52025;50.288;2.794;2023-06-24T08:57:34;4.80;;;2.78;;
65092;SDS011;52025;50.288;2.794;2023-06-24T08:59:59;5.45;;;2.20;;
65092;SDS011;52025;50.288;2.794;2023-06-24T09:02:24;6.40;;;2.63;;
65092;SDS011;52025;50.288;2.794;2023-06-24T09:15:51;4.82;;;2.20;;
65092;SDS011;52025;50.288;2.794;2023-06-24T09:18:16;4.72;;;2.45;;
65092;SDS011;52025;50.288;2.794;2023-06-24T09:20:44;4.43;;;2.33;;
65092;SDS011;52025;50.288;2.794;2023-06-24T09:23:13;4.90;;;2.10;;
65092;SDS011;52025;50.288;2.794;2023-06-24T09:25:43;5.65;;;2.30;;
65092;SDS011;52025;50.288;2.794;2023-06-24T09:28:12;4.72;;;2.17;;
65092;SDS011;52025;50.288;2.794;2023-06-24T09:30:38;5.80;;;1.95;;
65092;SDS011;52025;50.288;2.794;2023-06-24T09:33:03;3.63;;;2.00;;
65092;SDS011;52025;50.288;2.794;2023-06-24T09:35:50;3.17;;;1.60;;
65092;SDS011;52025;50.288;2.794;2023-06-24T09:38:19;3.38;;;1.95;;
65092;SDS011;52025;50.288;2.794;2023-06-24T09:41:01;5.57;;;2.40;;
65092;SDS011;52025;50.288;2.794;2023-06-24T09:43:27;4.30;;;2.10;;
65092;SDS011;52025;50.288;2.794;2023-06-24T09:45:52;3.83;;;1.70;;
65092;SDS011;52025;50.288;2.794;2023-06-24T09:48:18;3.03;;;1.38;;
65092;SDS011;52025;50.288;2.794;2023-06-24T09:50:43;2.97;;;1.20;;
65092;SDS011;52025;50.288;2.794;2023-06-24T09:53:09;3.35;;;1.70;;
65092;SDS011;52025;50.288;2.794;2023-06-24T09:55:35;3.70;;;1.95;;
65092;SDS011;52025;50.288;2.794;2023-06-24T09:58:04;3.92;;;1.60;;
65092;SDS011;52025;50.288;2.794;2023-06-24T10:00:29;4.28;;;1.88;;
65092;SDS011;52025;50.288;2.794;2023-06-24T10:02:54;4.88;;;1.63;;
65092;SDS011;52025;50.288;2.794;2023-06-24T10:05:31;4.30;;;1.80;;
65092;SDS011;52025;50.288;2.794;2023-06-24T10:16:43;4.55;;;1.60;;
65092;SDS011;52025;50.288;2.794;2023-06-24T10:49:47;3.72;;;1.40;;
65092;SDS011;52025;50.288;2.794;2023-06-24T10:52:30;2.90;;;1.60;;
65092;SDS011;52025;50.288;2.794;2023-06-24T11:29:35;3.40;;;1.60;;
65092;SDS011;52025;50.288;2.794;2023-06-24T11:45:11;4.80;;;1.80;;
65092;SDS011;52025;50.288;2.794;2023-06-24T11:57:18;3.90;;;1.60;;
65092;SDS011;52025;50.288;2.794;2023-06-24T11:59:46;4.28;;;1.58;;
65092;SDS011;52025;50.288;2.794;2023-06-24T12:02:24;3.17;;;1.40;;
65092;SDS011;52025;50.288;2.794;2023-06-24T12:05:12;3.28;;;1.65;;
65092;SDS011;52025;50.288;2.794;2023-06-24T12:07:53;5.50;;;1.70;;
65092;SDS011;52025;50.288;2.794;2023-06-24T12:10:26;3.55;;;1.90;;
65092;SDS011;52025;50.288;2.794;2023-06-24T12:12:56;4.20;;;1.23;;
65092;SDS011;52025;50.288;2.794;2023-06-24T12:15:24;3.22;;;1.60;;
65092;SDS011;52025;50.288;2.794;2023-06-24T12:17:56;2.78;;;1.35;;
65092;SDS011;52025;50.288;2.794;2023-06-24T12:22:56;3.17;;;1.58;;
65092;SDS011;52025;50.288;2.794;2023-06-24T12:25:22;3.17;;;1.42;;
65092;SDS011;52025;50.288;2.794;2023-06-24T12:27:47;3.05;;;1.83;;
65092;SDS011;52025;50.288;2.794;2023-06-24T12:30:12;3.38;;;1.60;;
65092;SDS011;52025;50.288;2.794;2023-06-24T12:33:00;3.33;;;1.63;;
65092;SDS011;52025;50.288;2.794;2023-06-24T12:35:31;4.15;;;1.70;;
65092;SDS011;52025;50.288;2.794;2023-06-24T12:38:06;3.53;;;1.58;;
65092;SDS011;52025;50.288;2.794;2023-06-24T12:40:31;3.45;;;1.60;;
65092;SDS011;52025;50.288;2.794;2023-06-24T12:45:48;4.72;;;1.50;;
65092;SDS011;52025;50.288;2.794;2023-06-24T12:48:16;4.70;;;1.80;;
65092;SDS011;52025;50.288;2.794;2023-06-24T12:50:41;3.15;;;1.50;;
65092;SDS011;52025;50.288;2.794;2023-06-24T12:53:07;5.82;;;1.63;;
65092;SDS011;52025;50.288;2.794;2023-06-24T12:55:32;2.80;;;1.30;;
65092;SDS011;52025;50.288;2.794;2023-06-24T12:57:57;3.28;;;1.33;;
65092;SDS011;52025;50.288;2.794;2023-06-24T13:00:24;3.08;;;1.48;;
65092;SDS011;52025;50.288;2.794;2023-06-24T13:02:50;4.40;;;1.58;;
65092;SDS011;52025;50.288;2.794;2023-06-24T13:05:16;4.30;;;1.40;;
65092;SDS011;52025;50.288;2.794;2023-06-24T13:07:47;2.72;;;1.40;;
65092;SDS011;52025;50.288;2.794;2023-06-24T13:10:15;3.53;;;1.55;;
65092;SDS011;52025;50.288;2.794;2023-06-24T13:12:46;3.10;;;1.50;;
65092;SDS011;52025;50.288;2.794;2023-06-24T13:15:19;3.88;;;1.73;;
65092;SDS011;52025;50.288;2.794;2023-06-24T13:18:22;2.47;;;1.30;;
65092;SDS011;52025;50.288;2.794;2023-06-24T13:21:24;3.70;;;1.38;;
65092;SDS011;52025;50.288;2.794;2023-06-24T13:23:59;2.92;;;1.45;;
65092;SDS011;52025;50.288;2.794;2023-06-24T13:26:38;3.42;;;1.80;;
65092;SDS011;52025;50.288;2.794;2023-06-24T13:29:11;3.00;;;1.30;;
65092;SDS011;52025;50.288;2.794;2023-06-24T13:31:47;3.13;;;1.20;;
65092;SDS011;52025;50.288;2.794;2023-06-24T13:34:12;3.20;;;1.00;;
65092;SDS011;52025;50.288;2.794;2023-06-24T13:36:38;2.55;;;1.02;;
65092;SDS011;52025;50.288;2.794;2023-06-24T13:39:05;2.25;;;1.05;;
65092;SDS011;52025;50.288;2.794;2023-06-24T13:41:41;3.45;;;1.65;;
65092;SDS011;52025;50.288;2.794;2023-06-24T13:44:07;1.98;;;1.02;;
65092;SDS011;52025;50.288;2.794;2023-06-24T13:46:32;2.65;;;1.13;;
65092;SDS011;52025;50.288;2.794;2023-06-24T13:49:01;3.55;;;1.38;;
65092;SDS011;52025;50.288;2.794;2023-06-24T13:51:26;1.85;;;1.08;;
65092;SDS011;52025;50.288;2.794;2023-06-24T13:53:52;1.92;;;1.10;;
65092;SDS011;52025;50.288;2.794;2023-06-24T13:56:23;2.47;;;1.17;;
65092;SDS011;52025;50.288;2.794;2023-06-24T13:58:55;4.43;;;1.50;;
65092;SDS011;52025;50.288;2.794;2023-06-24T14:01:21;2.80;;;1.13;;
65092;SDS011;52025;50.288;2.794;2023-06-24T14:03:47;1.88;;;1.17;;
65092;SDS011;52025;50.288;2.794;2023-06-24T14:06:21;3.50;;;1.80;;
65092;SDS011;52025;50.288;2.794;2023-06-24T14:08:58;3.63;;;1.67;;
65092;SDS011;52025;50.288;2.794;2023-06-24T14:11:47;3.30;;;1.40;;
65092;SDS011;52025;50.288;2.794;2023-06-24T14:14:16;2.63;;;1.38;;
65092;SDS011;52025;50.288;2.794;2023-06-24T14:16:42;2.75;;;1.13;;
65092;SDS011;52025;50.288;2.794;2023-06-24T14:19:07;2.13;;;1.10;;
65092;SDS011;52025;50.288;2.794;2023-06-24T14:21:33;3.17;;;1.42;;
65092;SDS011;52025;50.288;2.794;2023-06-24T14:24:03;3.40;;;1.00;;
65092;SDS011;52025;50.288;2.794;2023-06-24T14:26:28;2.65;;;1.17;;
65092;SDS011;52025;50.288;2.794;2023-06-24T14:28:53;1.77;;;1.00;;
65092;SDS011;52025;50.288;2.794;2023-06-24T14:31:19;1.95;;;0.95;;
65092;SDS011;52025;50.288;2.794;2023-06-24T14:33:44;3.20;;;1.30;;
65092;SDS011;52025;50.288;2.794;2023-06-24T14:36:09;3.10;;;1.35;;
65092;SDS011;52025;50.288;2.794;2023-06-24T14:38:35;2.15;;;1.10;;
65092;SDS011;52025;50.288;2.794;2023-06-24T14:52:11;3.92;;;1.38;;
65092;SDS011;52025;50.288;2.794;2023-06-24T14:54:47;3.35;;;1.20;;
65092;SDS011;52025;50.288;2.794;2023-06-24T14:57:22;2.45;;;1.10;;
65092;SDS011;52025;50.288;2.794;2023-06-24T15:00:08;5.07;;;1.50;;
65092;SDS011;52025;50.288;2.794;2023-06-24T15:03:03;2.42;;;1.33;;
65092;SDS011;52025;50.288;2.794;2023-06-24T15:05:33;2.17;;;1.10;;
65092;SDS011;52025;50.288;2.794;2023-06-24T15:08:03;1.27;;;0.80;;
65092;SDS011;52025;50.288;2.794;2023-06-24T15:13:48;2.65;;;1.15;;
65092;SDS011;52025;50.288;2.794;2023-06-24T15:16:37;3.72;;;1.65;;
65092;SDS011;52025;50.288;2.794;2023-06-24T15:19:19;3.90;;;1.30;;
65092;SDS011;52025;50.288;2.794;2023-06-24T15:43:58;2.17;;;0.98;;
65092;SDS011;52025;50.288;2.794;2023-06-24T15:46:41;2.33;;;1.00;;
65092;SDS011;52025;50.288;2.794;2023-06-24T17:32:42;1.80;;;0.90;;
65092;SDS011;52025;50.288;2.794;2023-06-24T17:35:10;2.15;;;1.08;;
65092;SDS011;52025;50.288;2.794;2023-06-24T17:37:35;1.48;;;0.95;;
65092;SDS011;52025;50.288;2.794;2023-06-24T17:40:00;2.85;;;1.38;;
65092;SDS011;52025;50.288;2.794;2023-06-24T17:42:38;3.33;;;1.08;;
65092;SDS011;52025;50.288;2.794;2023-06-24T17:45:10;1.75;;;0.88;;
65092;SDS011;52025;50.288;2.794;2023-06-24T17:47:35;2.28;;;0.77;;
65092;SDS011;52025;50.288;2.794;2023-06-24T17:50:04;1.85;;;0.88;;
65092;SDS011;52025;50.288;2.794;2023-06-24T17:55:02;1.80;;;0.93;;
65092;SDS011;52025;50.288;2.794;2023-06-24T17:57:28;2.50;;;1.05;;
65092;SDS011;52025;50.288;2.794;2023-06-24T17:59:59;2.70;;;1.00;;
65092;SDS011;52025;50.288;2.794;2023-06-24T18:02:29;2.20;;;1.00;;
65092;SDS011;52025;50.288;2.794;2023-06-24T18:08:01;1.73;;;1.00;;
65092;SDS011;52025;50.288;2.794;2023-06-24T18:10:29;1.85;;;0.90;;
65092;SDS011;52025;50.288;2.794;2023-06-24T18:12:57;1.90;;;0.98;;
65092;SDS011;52025;50.288;2.794;2023-06-24T18:15:28;1.98;;;0.98;;
65092;SDS011;52025;50.288;2.794;2023-06-24T18:17:53;3.25;;;1.10;;
65092;SDS011;52025;50.288;2.794;2023-06-24T18:20:21;2.30;;;0.93;;
65092;SDS011;52025;50.288;2.794;2023-06-24T18:22:46;1.77;;;0.90;;
65092;SDS011;52025;50.288;2.794;2023-06-24T18:25:14;2.78;;;1.15;;
65092;SDS011;52025;50.288;2.794;2023-06-24T18:27:42;2.72;;;1.08;;
65092;SDS011;52025;50.288;2.794;2023-06-24T18:30:10;2.47;;;1.08;;
65092;SDS011;52025;50.288;2.794;2023-06-24T18:32:38;2.00;;;1.13;;
65092;SDS011;52025;50.288;2.794;2023-06-24T18:35:15;3.88;;;1.10;;
65092;SDS011;52025;50.288;2.794;2023-06-24T18:37:43;2.72;;;1.40;;
65092;SDS011;52025;50.288;2.794;2023-06-24T18:43:15;2.63;;;1.00;;
65092;SDS011;52025;50.288;2.794;2023-06-24T18:45:48;2.80;;;1.23;;
65092;SDS011;52025;50.288;2.794;2023-06-24T18:48:13;2.15;;;1.02;;
65092;SDS011;52025;50.288;2.794;2023-06-24T18:50:42;1.52;;;1.05;;
65092;SDS011;52025;50.288;2.794;2023-06-24T18:53:15;4.57;;;0.95;;
65092;SDS011;52025;50.288;2.794;2023-06-24T18:55:46;2.42;;;1.13;;
65092;SDS011;52025;50.288;2.794;2023-06-24T18:58:16;2.47;;;1.10;;
65092;SDS011;52025;50.288;2.794;2023-06-24T19:00:41;2.22;;;1.10;;
65092;SDS011;52025;50.288;2.794;2023-06-24T19:03:07;2.08;;;1.15;;
65092;SDS011;52025;50.288;2.794;2023-06-24T19:08:35;2.58;;;1.13;;
65092;SDS011;52025;50.288;2.794;2023-06-24T19:11:00;2.28;;;1.02;;
65092;SDS011;52025;50.288;2.794;2023-06-24T19:13:29;2.05;;;1.13;;
65092;SDS011;52025;50.288;2.794;2023-06-24T19:15:59;3.45;;;1.27;;
65092;SDS011;52025;50.288;2.794;2023-06-24T19:18:26;2.08;;;1.02;;
65092;SDS011;52025;50.288;2.794;2023-06-24T19:20:54;1.77;;;1.00;;
65092;SDS011;52025;50.288;2.794;2023-06-24T19:23:20;1.92;;;0.95;;
65092;SDS011;52025;50.288;2.794;2023-06-24T19:26:08;2.28;;;1.10;;
65092;SDS011;52025;50.288;2.794;2023-06-24T19:28:41;2.00;;;0.95;;
65092;SDS011;52025;50.288;2.794;2023-06-24T19:34:05;2.97;;;1.30;;
65092;SDS011;52025;50.288;2.794;2023-06-24T19:36:40;3.95;;;1.40;;
65092;SDS011;52025;50.288;2.794;2023-06-24T19:39:08;2.78;;;1.38;;
65092;SDS011;52025;50.288;2.794;2023-06-24T19:41:53;2.95;;;1.20;;
65092;SDS011;52025;50.288;2.794;2023-06-24T19:44:27;2.75;;;1.33;;
65092;SDS011;52025;50.288;2.794;2023-06-24T19:46:52;2.65;;;1.45;;
65092;SDS011;52025;50.288;2.794;2023-06-24T19:49:37;2.75;;;1.35;;
65092;SDS011;52025;50.288;2.794;2023-06-24T19:52:19;4.80;;;1.60;;
65092;SDS011;52025;50.288;2.794;2023-06-24T19:54:53;2.72;;;1.33;;
65092;SDS011;52025;50.288;2.794;2023-06-24T19:57:41;2.88;;;1.45;;
65092;SDS011;52025;50.288;2.794;2023-06-24T20:00:25;3.28;;;1.40;;
65092;SDS011;52025;50.288;2.794;2023-06-24T20:03:02;4.38;;;1.25;;
65092;SDS011;52025;50.288;2.794;2023-06-24T20:05:50;3.45;;;1.50;;
65092;SDS011;52025;50.288;2.794;2023-06-24T20:08:21;4.05;;;1.95;;
65092;SDS011;52025;50.288;2.794;2023-06-24T20:10:52;4.30;;;2.05;;
65092;SDS011;52025;50.288;2.794;2023-06-24T20:13:17;3.22;;;1.60;;
65092;SDS011;52025;50.288;2.794;2023-06-24T20:15:43;3.65;;;1.73;;
65092;SDS011;52025;50.288;2.794;2023-06-24T20:18:16;3.80;;;1.80;;
65092;SDS011;52025;50.288;2.794;2023-06-24T20:23:27;4.07;;;1.65;;
65092;SDS011;52025;50.288;2.794;2023-06-24T20:26:03;3.58;;;1.40;;
65092;SDS011;52025;50.288;2.794;2023-06-24T20:28:32;4.13;;;1.65;;
65092;SDS011;52025;50.288;2.794;2023-06-24T20:31:21;4.07;;;1.42;;
65092;SDS011;52025;50.288;2.794;2023-06-24T20:33:54;3.63;;;1.73;;
65092;SDS011;52025;50.288;2.794;2023-06-24T20:36:25;4.07;;;1.90;;
65092;SDS011;52025;50.288;2.794;2023-06-24T20:38:55;4.07;;;2.13;;
65092;SDS011;52025;50.288;2.794;2023-06-24T20:41:25;3.97;;;2.00;;
65092;SDS011;52025;50.288;2.794;2023-06-24T20:44:04;4.20;;;2.30;;
65092;SDS011;52025;50.288;2.794;2023-06-24T20:46:45;4.55;;;1.90;;
65092;SDS011;52025;50.288;2.794;2023-06-24T20:49:18;4.13;;;2.20;;
65092;SDS011;52025;50.288;2.794;2023-06-24T20:51:43;4.50;;;2.17;;
65092;SDS011;52025;50.288;2.794;2023-06-24T20:54:33;4.93;;;2.30;;
65092;SDS011;52025;50.288;2.794;2023-06-24T20:57:16;7.03;;;2.72;;
65092;SDS011;52025;50.288;2.794;2023-06-24T21:00:02;5.38;;;2.50;;
65092;SDS011;52025;50.288;2.794;2023-06-24T21:02:42;4.38;;;2.33;;
65092;SDS011;52025;50.288;2.794;2023-06-24T21:05:18;4.97;;;2.45;;
65092;SDS011;52025;50.288;2.794;2023-06-24T21:07:46;5.40;;;2.60;;
65092;SDS011;52025;50.288;2.794;2023-06-24T21:10:28;5.28;;;2.70;;
65092;SDS011;52025;50.288;2.794;2023-06-24T21:13:04;5.78;;;2.63;;
65092;SDS011;52025;50.288;2.794;2023-06-24T21:18:17;5.80;;;2.92;;
65092;SDS011;52025;50.288;2.794;2023-06-24T21:20:48;6.72;;;3.03;;
65092;SDS011;52025;50.288;2.794;2023-06-24T21:23:14;6.82;;;3.80;;
65092;SDS011;52025;50.288;2.794;2023-06-24T21:25:39;10.88;;;6.18;;
65092;SDS011;52025;50.288;2.794;2023-06-24T21:28:05;10.52;;;5.75;;
65092;SDS011;52025;50.288;2.794;2023-06-24T21:30:32;9.65;;;4.65;;
65092;SDS011;52025;50.288;2.794;2023-06-24T21:33:05;6.68;;;3.80;;
65092;SDS011;52025;50.288;2.794;2023-06-24T21:35:30;7.15;;;3.83;;
65092;SDS011;52025;50.288;2.794;2023-06-24T21:38:02;6.60;;;3.70;;
65092;SDS011;52025;50.288;2.794;2023-06-24T21:40:27;7.78;;;3.80;;
65092;SDS011;52025;50.288;2.794;2023-06-24T21:42:52;7.68;;;4.00;;
65092;SDS011;52025;50.288;2.794;2023-06-24T21:45:20;8.43;;;3.67;;
65092;SDS011;52025;50.288;2.794;2023-06-24T21:47:48;8.02;;;3.50;;
65092;SDS011;52025;50.288;2.794;2023-06-24T21:50:16;8.23;;;3.17;;
65092;SDS011;52025;50.288;2.794;2023-06-24T21:52:47;7.88;;;3.25;;
65092;SDS011;52025;50.288;2.794;2023-06-24T21:55:15;6.60;;;3.70;;
65092;SDS011;52025;50.288;2.794;2023-06-24T21:57:51;6.65;;;3.05;;
